sensor_id;sensor_type;location;lat;lon;timestamp;pressure;altitude;pressure_sealevel;temperature;humidity
58975;BME280;44751;52.236;5.178;2023-09-18T00:00:34;100522.88;;;18.43;100.00
58975;BME280;44751;52.236;5.178;2023-09-18T00:03:03;100515.63;;;18.49;100.00
58975;BME280;44751;52.236;5.178;2023-09-18T00:05:30;100511.69;;;18.57;100.00
58975;BME280;44751;52.236;5.178;2023-09-18T00:07:58;100509.78;;;18.57;100.00
58975;BME280;44751;52.236;5.178;2023-09-18T00:10:26;100507.41;;;18.61;100.00
58975;BME280;44751;52.236;5.178;2023-09-18T00:12:54;100486.72;;;18.65;100.00
58975;BME280;44751;52.236;5.178;2023-09-18T00:15:20;100480.91;;;18.62;100.00
58975;BME280;44751;52.236;5.178;2023-09-18T00:17:47;100478.13;;;18.44;100.00
58975;BME280;44751;52.236;5.178;2023-09-18T00:20:14;100478.41;;;18.60;100.00
58975;BME280;44751;52.236;5.178;2023-09-18T00:22:44;100469.59;;;18.70;100.00
58975;BME280;44751;52.236;5.178;2023-09-18T00:25:14;100455.13;;;18.69;100.00
58975;BME280;44751;52.236;5.178;2023-09-18T00:27:41;100445.63;;;18.60;100.00
58975;BME280;44751;52.236;5.178;2023-09-18T00:30:08;100450.06;;;18.49;100.00
58975;BME280;44751;52.236;5.178;2023-09-18T00:32:36;100440.03;;;18.67;100.00
58975;BME280;44751;52.236;5.178;2023-09-18T00:35:03;100437.50;;;18.77;100.00
58975;BME280;44751;52.236;5.178;2023-09-18T00:37:32;100445.84;;;18.70;100.00
58975;BME280;44751;52.236;5.178;2023-09-18T00:39:59;100433.34;;;18.75;100.00
58975;BME280;44751;52.236;5.178;2023-09-18T00:42:25;100436.75;;;18.82;100.00
58975;BME280;44751;52.236;5.178;2023-09-18T00:44:52;100434.19;;;18.75;100.00
58975;BME280;44751;52.236;5.178;2023-09-18T00:47:21;100435.75;;;18.71;100.00
58975;BME280;44751;52.236;5.178;2023-09-18T00:49:51;100423.41;;;18.68;100.00
58975;BME280;44751;52.236;5.178;2023-09-18T00:52:19;100419.50;;;18.64;100.00
58975;BME280;44751;52.236;5.178;2023-09-18T00:54:50;100414.63;;;18.66;100.00
58975;BME280;44751;52.236;5.178;2023-09-18T00:57:20;100393.34;;;18.68;100.00
58975;BME280;44751;52.236;5.178;2023-09-18T00:59:46;100391.09;;;18.65;100.00
58975;BME280;44751;52.236;5.178;2023-09-18T01:02:13;100392.84;;;18.71;100.00
58975;BME280;44751;52.236;5.178;2023-09-18T01:04:40;100383.59;;;18.73;100.00
58975;BME280;44751;52.236;5.178;2023-09-18T01:07:09;100368.50;;;18.70;100.00
58975;BME280;44751;52.236;5.178;2023-09-18T01:09:36;100360.72;;;18.79;100.00
58975;BME280;44751;52.236;5.178;2023-09-18T01:12:17;100360.25;;;18.82;100.00
58975;BME280;44751;52.236;5.178;2023-09-18T01:17:35;100350.28;;;18.76;100.00
58975;BME280;44751;52.236;5.178;2023-09-18T01:20:03;100344.81;;;18.76;100.00
58975;BME280;44751;52.236;5.178;2023-09-18T01:22:33;100332.91;;;18.82;100.00
58975;BME280;44751;52.236;5.178;2023-09-18T01:25:00;100331.81;;;18.83;100.00
58975;BME280;44751;52.236;5.178;2023-09-18T01:27:27;100319.81;;;18.84;100.00
58975;BME280;44751;52.236;5.178;2023-09-18T01:29:54;100314.88;;;18.81;100.00
58975;BME280;44751;52.236;5.178;2023-09-18T01:32:24;100312.03;;;18.76;100.00
58975;BME280;44751;52.236;5.178;2023-09-18T01:35:04;100314.75;;;18.76;100.00
58975;BME280;44751;52.236;5.178;2023-09-18T01:37:33;100318.09;;;18.78;100.00
58975;BME280;44751;52.236;5.178;2023-09-18T01:40:01;100311.38;;;18.86;100.00
58975;BME280;44751;52.236;5.178;2023-09-18T01:42:35;100299.53;;;18.80;100.00
58975;BME280;44751;52.236;5.178;2023-09-18T01:45:02;100309.41;;;18.81;100.00
58975;BME280;44751;52.236;5.178;2023-09-18T01:47:30;100311.13;;;18.87;100.00
58975;BME280;44751;52.236;5.178;2023-09-18T01:49:56;100310.31;;;18.87;100.00
58975;BME280;44751;52.236;5.178;2023-09-18T01:52:26;100306.25;;;18.72;100.00
58975;BME280;44751;52.236;5.178;2023-09-18T01:54:56;100308.66;;;18.68;100.00
58975;BME280;44751;52.236;5.178;2023-09-18T01:57:23;100295.47;;;18.65;100.00
58975;BME280;44751;52.236;5.178;2023-09-18T01:59:50;100288.28;;;18.76;100.00
58975;BME280;44751;52.236;5.178;2023-09-18T02:02:17;100286.44;;;18.82;100.00
58975;BME280;44751;52.236;5.178;2023-09-18T02:04:48;100288.03;;;18.78;100.00
58975;BME280;44751;52.236;5.178;2023-09-18T02:07:15;100288.50;;;18.75;100.00
58975;BME280;44751;52.236;5.178;2023-09-18T02:09:42;100290.75;;;18.78;100.00
58975;BME280;44751;52.236;5.178;2023-09-18T02:12:09;100295.06;;;18.91;100.00
58975;BME280;44751;52.236;5.178;2023-09-18T02:14:43;100291.56;;;18.78;100.00
58975;BME280;44751;52.236;5.178;2023-09-18T02:17:11;100304.69;;;18.93;100.00
58975;BME280;44751;52.236;5.178;2023-09-18T02:19:37;100302.13;;;18.87;100.00
58975;BME280;44751;52.236;5.178;2023-09-18T02:22:04;100302.00;;;18.81;100.00
58975;BME280;44751;52.236;5.178;2023-09-18T02:24:31;100304.09;;;18.91;100.00
58975;BME280;44751;52.236;5.178;2023-09-18T02:26:57;100298.84;;;18.90;100.00
58975;BME280;44751;52.236;5.178;2023-09-18T02:29:24;100295.38;;;18.94;100.00
58975;BME280;44751;52.236;5.178;2023-09-18T02:31:52;100300.94;;;19.00;100.00
58975;BME280;44751;52.236;5.178;2023-09-18T02:34:19;100292.06;;;18.92;100.00
58975;BME280;44751;52.236;5.178;2023-09-18T02:36:45;100285.19;;;18.90;100.00
58975;BME280;44751;52.236;5.178;2023-09-18T02:39:15;100277.53;;;18.87;100.00
58975;BME280;44751;52.236;5.178;2023-09-18T02:41:46;100264.16;;;18.90;100.00
58975;BME280;44751;52.236;5.178;2023-09-18T02:44:13;100255.78;;;18.97;100.00
58975;BME280;44751;52.236;5.178;2023-09-18T02:46:40;100261.69;;;18.89;100.00
58975;BME280;44751;52.236;5.178;2023-09-18T02:49:07;100253.97;;;18.86;100.00
58975;BME280;44751;52.236;5.178;2023-09-18T02:51:33;100253.00;;;18.75;100.00
58975;BME280;44751;52.236;5.178;2023-09-18T02:54:05;100245.94;;;18.79;100.00
58975;BME280;44751;52.236;5.178;2023-09-18T02:56:31;100243.63;;;18.70;100.00
58975;BME280;44751;52.236;5.178;2023-09-18T02:58:58;100246.19;;;18.77;100.00
58975;BME280;44751;52.236;5.178;2023-09-18T03:01:24;100233.31;;;18.73;100.00
58975;BME280;44751;52.236;5.178;2023-09-18T03:03:53;100227.56;;;18.91;100.00
58975;BME280;44751;52.236;5.178;2023-09-18T03:06:22;100219.09;;;18.93;100.00
58975;BME280;44751;52.236;5.178;2023-09-18T03:08:49;100198.56;;;18.90;100.00
58975;BME280;44751;52.236;5.178;2023-09-18T03:11:15;100189.03;;;18.93;100.00
58975;BME280;44751;52.236;5.178;2023-09-18T03:13:43;100174.22;;;18.89;100.00
58975;BME280;44751;52.236;5.178;2023-09-18T03:16:11;100159.22;;;18.91;100.00
58975;BME280;44751;52.236;5.178;2023-09-18T03:18:45;100162.00;;;18.96;100.00
58975;BME280;44751;52.236;5.178;2023-09-18T03:21:11;100163.75;;;19.03;100.00
58975;BME280;44751;52.236;5.178;2023-09-18T03:23:38;100157.97;;;18.99;100.00
58975;BME280;44751;52.236;5.178;2023-09-18T03:26:04;100175.19;;;19.00;100.00
58975;BME280;44751;52.236;5.178;2023-09-18T03:28:31;100170.22;;;18.96;100.00
58975;BME280;44751;52.236;5.178;2023-09-18T03:31:00;100166.91;;;18.94;100.00
58975;BME280;44751;52.236;5.178;2023-09-18T03:33:27;100160.97;;;18.97;100.00
58975;BME280;44751;52.236;5.178;2023-09-18T03:35:53;100159.94;;;19.04;100.00
58975;BME280;44751;52.236;5.178;2023-09-18T03:38:23;100159.88;;;18.99;100.00
58975;BME280;44751;52.236;5.178;2023-09-18T03:40:55;100156.63;;;19.02;100.00
58975;BME280;44751;52.236;5.178;2023-09-18T03:43:21;100177.41;;;19.03;100.00
58975;BME280;44751;52.236;5.178;2023-09-18T03:45:48;100180.00;;;18.92;100.00
58975;BME280;44751;52.236;5.178;2023-09-18T03:48:14;100182.66;;;18.87;100.00
58975;BME280;44751;52.236;5.178;2023-09-18T03:50:41;100169.44;;;18.79;100.00
58975;BME280;44751;52.236;5.178;2023-09-18T03:53:08;100176.88;;;18.83;100.00
58975;BME280;44751;52.236;5.178;2023-09-18T03:55:38;100162.53;;;18.93;100.00
58975;BME280;44751;52.236;5.178;2023-09-18T03:58:05;100160.63;;;18.94;100.00
58975;BME280;44751;52.236;5.178;2023-09-18T04:00:31;100146.63;;;18.90;100.00
58975;BME280;44751;52.236;5.178;2023-09-18T04:02:58;100153.44;;;18.88;100.00
58975;BME280;44751;52.236;5.178;2023-09-18T04:05:27;100159.22;;;18.91;100.00
58975;BME280;44751;52.236;5.178;2023-09-18T04:07:59;100147.84;;;19.00;100.00
58975;BME280;44751;52.236;5.178;2023-09-18T04:10:26;100141.81;;;18.97;100.00
58975;BME280;44751;52.236;5.178;2023-09-18T04:12:52;100153.41;;;19.05;100.00
58975;BME280;44751;52.236;5.178;2023-09-18T04:15:22;100150.59;;;19.00;100.00
58975;BME280;44751;52.236;5.178;2023-09-18T04:17:50;100160.03;;;19.09;100.00
58975;BME280;44751;52.236;5.178;2023-09-18T04:20:17;100151.66;;;18.99;100.00
58975;BME280;44751;52.236;5.178;2023-09-18T04:22:46;100159.88;;;18.99;100.00
58975;BME280;44751;52.236;5.178;2023-09-18T04:25:15;100154.22;;;19.05;100.00
58975;BME280;44751;52.236;5.178;2023-09-18T04:27:42;100134.16;;;19.17;100.00
58975;BME280;44751;52.236;5.178;2023-09-18T04:30:08;100131.72;;;19.20;100.00
58975;BME280;44751;52.236;5.178;2023-09-18T04:32:36;100109.25;;;19.13;100.00
58975;BME280;44751;52.236;5.178;2023-09-18T04:35:04;100114.41;;;18.92;100.00
58975;BME280;44751;52.236;5.178;2023-09-18T04:37:33;100105.00;;;18.83;100.00
58975;BME280;44751;52.236;5.178;2023-09-18T04:40:00;100124.50;;;18.69;100.00
58975;BME280;44751;52.236;5.178;2023-09-18T04:42:26;100123.69;;;18.52;100.00
58975;BME280;44751;52.236;5.178;2023-09-18T04:44:53;100109.78;;;18.53;100.00
58975;BME280;44751;52.236;5.178;2023-09-18T04:47:20;100119.22;;;18.63;100.00
58975;BME280;44751;52.236;5.178;2023-09-18T04:49:47;100123.72;;;18.74;100.00
58975;BME280;44751;52.236;5.178;2023-09-18T04:52:14;100085.22;;;18.76;100.00
58975;BME280;44751;52.236;5.178;2023-09-18T04:54:49;100091.13;;;21.29;100.00
58975;BME280;44751;52.236;5.178;2023-09-18T04:57:16;100075.53;;;21.46;100.00
58975;BME280;44751;52.236;5.178;2023-09-18T04:59:42;100054.88;;;21.22;100.00
58975;BME280;44751;52.236;5.178;2023-09-18T05:02:09;100046.69;;;21.59;100.00
58975;BME280;44751;52.236;5.178;2023-09-18T05:04:36;100051.03;;;21.18;100.00
58975;BME280;44751;52.236;5.178;2023-09-18T05:07:02;100046.91;;;21.10;100.00
58975;BME280;44751;52.236;5.178;2023-09-18T05:09:33;100044.97;;;20.95;100.00
58975;BME280;44751;52.236;5.178;2023-09-18T05:12:00;100040.59;;;21.05;100.00
58975;BME280;44751;52.236;5.178;2023-09-18T05:14:27;100038.94;;;21.09;100.00
58975;BME280;44751;52.236;5.178;2023-09-18T05:16:54;100054.56;;;21.08;100.00
58975;BME280;44751;52.236;5.178;2023-09-18T05:19:21;100069.91;;;21.04;100.00
58975;BME280;44751;52.236;5.178;2023-09-18T05:21:50;100054.31;;;21.05;100.00
58975;BME280;44751;52.236;5.178;2023-09-18T05:24:17;100066.38;;;20.98;100.00
58975;BME280;44751;52.236;5.178;2023-09-18T05:26:53;100071.19;;;20.86;100.00
58975;BME280;44751;52.236;5.178;2023-09-18T05:29:20;100066.53;;;20.81;100.00
58975;BME280;44751;52.236;5.178;2023-09-18T05:31:47;100081.63;;;20.84;100.00
58975;BME280;44751;52.236;5.178;2023-09-18T05:34:13;100089.53;;;20.80;100.00
58975;BME280;44751;52.236;5.178;2023-09-18T05:36:40;100098.41;;;20.93;100.00
58975;BME280;44751;52.236;5.178;2023-09-18T05:39:07;100105.97;;;20.75;100.00
58975;BME280;44751;52.236;5.178;2023-09-18T05:41:39;100109.78;;;20.69;100.00
58975;BME280;44751;52.236;5.178;2023-09-18T05:44:06;100105.19;;;20.80;100.00
58975;BME280;44751;52.236;5.178;2023-09-18T05:46:35;100121.34;;;20.81;100.00
58975;BME280;44751;52.236;5.178;2023-09-18T05:49:22;100126.63;;;20.88;100.00
58975;BME280;44751;52.236;5.178;2023-09-18T05:51:49;100123.63;;;20.89;100.00
58975;BME280;44751;52.236;5.178;2023-09-18T05:54:15;100112.38;;;20.91;100.00
58975;BME280;44751;52.236;5.178;2023-09-18T05:56:42;100119.53;;;20.97;100.00
58975;BME280;44751;52.236;5.178;2023-09-18T05:59:09;100104.50;;;21.05;100.00
58975;BME280;44751;52.236;5.178;2023-09-18T06:01:36;100106.94;;;21.01;100.00
58975;BME280;44751;52.236;5.178;2023-09-18T06:04:03;100100.22;;;20.82;100.00
58975;BME280;44751;52.236;5.178;2023-09-18T06:06:30;100095.78;;;20.65;100.00
58975;BME280;44751;52.236;5.178;2023-09-18T06:08:56;100094.63;;;20.56;100.00
58975;BME280;44751;52.236;5.178;2023-09-18T06:11:23;100100.09;;;20.50;100.00
58975;BME280;44751;52.236;5.178;2023-09-18T06:13:53;100090.25;;;20.55;100.00
58975;BME280;44751;52.236;5.178;2023-09-18T06:16:20;100106.72;;;20.60;100.00
58975;BME280;44751;52.236;5.178;2023-09-18T06:18:46;100116.06;;;20.64;100.00
58975;BME280;44751;52.236;5.178;2023-09-18T06:21:13;100115.78;;;20.60;100.00
58975;BME280;44751;52.236;5.178;2023-09-18T06:23:40;100127.28;;;20.62;100.00
58975;BME280;44751;52.236;5.178;2023-09-18T06:26:13;100125.97;;;20.75;100.00
58975;BME280;44751;52.236;5.178;2023-09-18T06:28:40;100112.03;;;20.77;100.00
58975;BME280;44751;52.236;5.178;2023-09-18T06:31:07;100104.84;;;20.71;100.00
58975;BME280;44751;52.236;5.178;2023-09-18T06:33:34;100114.16;;;20.70;100.00
58975;BME280;44751;52.236;5.178;2023-09-18T06:36:00;100098.81;;;20.69;100.00
58975;BME280;44751;52.236;5.178;2023-09-18T06:38:46;100095.06;;;20.85;100.00
58975;BME280;44751;52.236;5.178;2023-09-18T08:54:00;100151.66;;;21.02;100.00
58975;BME280;44751;52.236;5.178;2023-09-18T08:56:28;100152.03;;;20.78;100.00
58975;BME280;44751;52.236;5.178;2023-09-18T08:58:56;100147.41;;;20.41;100.00
58975;BME280;44751;52.236;5.178;2023-09-18T09:01:36;100141.41;;;20.44;100.00
58975;BME280;44751;52.236;5.178;2023-09-18T09:04:03;100160.41;;;20.56;100.00
58975;BME280;44751;52.236;5.178;2023-09-18T09:06:30;100154.41;;;20.59;100.00
58975;BME280;44751;52.236;5.178;2023-09-18T09:08:56;100161.63;;;20.75;100.00
58975;BME280;44751;52.236;5.178;2023-09-18T09:11:27;100166.28;;;21.28;100.00
58975;BME280;44751;52.236;5.178;2023-09-18T09:14:11;100184.53;;;20.97;100.00
58975;BME280;44751;52.236;5.178;2023-09-18T09:16:46;100179.97;;;20.75;100.00
58975;BME280;44751;52.236;5.178;2023-09-18T09:19:15;100171.69;;;21.02;100.00
58975;BME280;44751;52.236;5.178;2023-09-18T09:21:48;100175.59;;;20.79;100.00
58975;BME280;44751;52.236;5.178;2023-09-18T09:24:42;100184.00;;;20.62;100.00
58975;BME280;44751;52.236;5.178;2023-09-18T09:27:17;100177.94;;;20.55;100.00
58975;BME280;44751;52.236;5.178;2023-09-18T09:29:59;100185.41;;;21.08;100.00
58975;BME280;44751;52.236;5.178;2023-09-18T09:32:33;100185.31;;;20.92;100.00
58975;BME280;44751;52.236;5.178;2023-09-18T09:35:00;100184.53;;;20.97;100.00
58975;BME280;44751;52.236;5.178;2023-09-18T09:37:30;100182.94;;;21.11;100.00
58975;BME280;44751;52.236;5.178;2023-09-18T09:39:56;100188.25;;;21.34;100.00
58975;BME280;44751;52.236;5.178;2023-09-18T09:42:39;100199.56;;;20.94;100.00
58975;BME280;44751;52.236;5.178;2023-09-18T09:45:11;100194.66;;;20.91;100.00
58975;BME280;44751;52.236;5.178;2023-09-18T09:47:41;100198.91;;;20.76;100.00
58975;BME280;44751;52.236;5.178;2023-09-18T09:50:11;100206.88;;;20.83;100.00
58975;BME280;44751;52.236;5.178;2023-09-18T09:52:48;100199.19;;;20.80;100.00
58975;BME280;44751;52.236;5.178;2023-09-18T09:55:29;100208.81;;;20.83;100.00
58975;BME280;44751;52.236;5.178;2023-09-18T09:57:58;100213.69;;;20.75;100.00
58975;BME280;44751;52.236;5.178;2023-09-18T10:00:38;100221.22;;;20.90;100.00
58975;BME280;44751;52.236;5.178;2023-09-18T10:03:10;100214.94;;;20.57;100.00
58975;BME280;44751;52.236;5.178;2023-09-18T10:05:44;100214.72;;;20.64;100.00
58975;BME280;44751;52.236;5.178;2023-09-18T10:08:22;100217.84;;;20.45;100.00
58975;BME280;44751;52.236;5.178;2023-09-18T10:10:52;100217.31;;;20.43;100.00
58975;BME280;44751;52.236;5.178;2023-09-18T10:16:09;100211.50;;;20.77;100.00
58975;BME280;44751;52.236;5.178;2023-09-18T10:18:56;100216.94;;;21.05;100.00
58975;BME280;44751;52.236;5.178;2023-09-18T10:24:24;100207.25;;;20.92;100.00
58975;BME280;44751;52.236;5.178;2023-09-18T10:29:26;100213.06;;;20.63;100.00
58975;BME280;44751;52.236;5.178;2023-09-18T10:31:54;100208.88;;;20.55;100.00
58975;BME280;44751;52.236;5.178;2023-09-18T10:34:23;100213.31;;;20.29;100.00
58975;BME280;44751;52.236;5.178;2023-09-18T10:36:54;100217.66;;;20.52;100.00
58975;BME280;44751;52.236;5.178;2023-09-18T10:39:23;100221.59;;;20.72;100.00
58975;BME280;44751;52.236;5.178;2023-09-18T10:41:54;100206.63;;;20.85;100.00
58975;BME280;44751;52.236;5.178;2023-09-18T10:44:23;100217.56;;;20.80;100.00
58975;BME280;44751;52.236;5.178;2023-09-18T10:46:51;100215.75;;;20.90;100.00
58975;BME280;44751;52.236;5.178;2023-09-18T10:49:21;100210.72;;;20.82;100.00
58975;BME280;44751;52.236;5.178;2023-09-18T10:51:48;100215.22;;;20.61;100.00
58975;BME280;44751;52.236;5.178;2023-09-18T10:54:25;100213.69;;;20.75;100.00
58975;BME280;44751;52.236;5.178;2023-09-18T10:57:03;100205.81;;;20.84;100.00
58975;BME280;44751;52.236;5.178;2023-09-18T10:59:30;100203.00;;;21.22;100.00
58975;BME280;44751;52.236;5.178;2023-09-18T11:02:02;100204.81;;;21.60;100.00
58975;BME280;44751;52.236;5.178;2023-09-18T11:04:32;100200.78;;;21.88;100.00
58975;BME280;44751;52.236;5.178;2023-09-18T11:07:02;100196.59;;;21.70;100.00
58975;BME280;44751;52.236;5.178;2023-09-18T11:09:45;100208.94;;;21.62;100.00
58975;BME280;44751;52.236;5.178;2023-09-18T11:12:17;100199.94;;;21.77;100.00
58975;BME280;44751;52.236;5.178;2023-09-18T11:14:59;100199.19;;;22.13;100.00
58975;BME280;44751;52.236;5.178;2023-09-18T11:17:58;100206.34;;;22.25;100.00
58975;BME280;44751;52.236;5.178;2023-09-18T11:20:29;100196.97;;;22.21;100.00
58975;BME280;44751;52.236;5.178;2023-09-18T11:22:57;100207.41;;;22.13;100.00
58975;BME280;44751;52.236;5.178;2023-09-18T11:25:35;100198.66;;;22.22;100.00
58975;BME280;44751;52.236;5.178;2023-09-18T11:28:15;100197.28;;;22.29;100.00
58975;BME280;44751;52.236;5.178;2023-09-18T11:30:56;100199.47;;;22.33;100.00
58975;BME280;44751;52.236;5.178;2023-09-18T11:33:32;100201.66;;;22.41;100.00
58975;BME280;44751;52.236;5.178;2023-09-18T11:36:10;100194.78;;;22.07;100.00
58975;BME280;44751;52.236;5.178;2023-09-18T11:39:02;100200.78;;;21.78;100.00
58975;BME280;44751;52.236;5.178;2023-09-18T11:41:35;100198.91;;;21.99;100.00
58975;BME280;44751;52.236;5.178;2023-09-18T11:46:50;100200.81;;;22.04;100.00
58975;BME280;44751;52.236;5.178;2023-09-18T11:49:31;100207.13;;;21.89;100.00
58975;BME280;44751;52.236;5.178;2023-09-18T11:52:02;100201.66;;;22.30;100.00
58975;BME280;44751;52.236;5.178;2023-09-18T11:54:32;100207.72;;;22.48;100.00
58975;BME280;44751;52.236;5.178;2023-09-18T11:57:04;100202.75;;;22.35;100.00
58975;BME280;44751;52.236;5.178;2023-09-18T11:59:44;100197.28;;;22.24;100.00
58975;BME280;44751;52.236;5.178;2023-09-18T12:02:31;100192.84;;;22.23;100.00
58975;BME280;44751;52.236;5.178;2023-09-18T12:05:17;100184.91;;;22.27;100.00
58975;BME280;44751;52.236;5.178;2023-09-18T12:07:55;100182.97;;;22.38;100.00
58975;BME280;44751;52.236;5.178;2023-09-18T12:10:23;100179.44;;;22.58;100.00
58975;BME280;44751;52.236;5.178;2023-09-18T12:12:54;100181.63;;;22.30;100.00
58975;BME280;44751;52.236;5.178;2023-09-18T12:15:27;100190.13;;;22.44;100.00
58975;BME280;44751;52.236;5.178;2023-09-18T12:17:56;100189.28;;;22.49;100.00
58975;BME280;44751;52.236;5.178;2023-09-18T12:20:32;100184.06;;;22.42;100.00
58975;BME280;44751;52.236;5.178;2023-09-18T12:23:24;100184.38;;;22.56;100.00
58975;BME280;44751;52.236;5.178;2023-09-18T12:26:41;100187.94;;;22.41;100.00
58975;BME280;44751;52.236;5.178;2023-09-18T12:29:08;100186.28;;;22.35;100.00
58975;BME280;44751;52.236;5.178;2023-09-18T12:31:39;100189.31;;;22.43;100.00
58975;BME280;44751;52.236;5.178;2023-09-18T12:34:17;100189.84;;;22.35;100.00
58975;BME280;44751;52.236;5.178;2023-09-18T12:36:56;100200.59;;;22.57;100.00
58975;BME280;44751;52.236;5.178;2023-09-18T12:39:40;100170.88;;;22.80;100.00
58975;BME280;44751;52.236;5.178;2023-09-18T12:42:07;100187.41;;;22.65;100.00
58975;BME280;44751;52.236;5.178;2023-09-18T12:44:37;100175.84;;;22.26;100.00
58975;BME280;44751;52.236;5.178;2023-09-18T12:47:13;100175.00;;;22.05;100.00
58975;BME280;44751;52.236;5.178;2023-09-18T12:49:40;100177.44;;;21.86;100.00
58975;BME280;44751;52.236;5.178;2023-09-18T12:52:07;100166.19;;;21.92;100.00
58975;BME280;44751;52.236;5.178;2023-09-18T12:54:45;100170.34;;;22.31;100.00
58975;BME280;44751;52.236;5.178;2023-09-18T12:57:19;100164.28;;;22.45;100.00
58975;BME280;44751;52.236;5.178;2023-09-18T12:59:46;100155.47;;;22.43;100.00
58975;BME280;44751;52.236;5.178;2023-09-18T13:02:25;100155.50;;;22.17;100.00
58975;BME280;44751;52.236;5.178;2023-09-18T13:04:55;100160.72;;;22.39;100.00
58975;BME280;44751;52.236;5.178;2023-09-18T13:07:44;100136.28;;;22.33;100.00
58975;BME280;44751;52.236;5.178;2023-09-18T13:10:12;100145.31;;;22.33;100.00
58975;BME280;44751;52.236;5.178;2023-09-18T13:12:55;100149.72;;;22.50;100.00
58975;BME280;44751;52.236;5.178;2023-09-18T13:15:29;100144.22;;;22.39;100.00
58975;BME280;44751;52.236;5.178;2023-09-18T13:20:52;100134.06;;;22.29;100.00
58975;BME280;44751;52.236;5.178;2023-09-18T13:23:34;100128.56;;;22.66;100.00
58975;BME280;44751;52.236;5.178;2023-09-18T13:26:05;100128.03;;;22.64;100.00
58975;BME280;44751;52.236;5.178;2023-09-18T13:28:35;100115.91;;;22.65;100.00
58975;BME280;44751;52.236;5.178;2023-09-18T13:31:08;100126.22;;;23.04;100.00
58975;BME280;44751;52.236;5.178;2023-09-18T13:33:44;100102.50;;;23.19;100.00
58975;BME280;44751;52.236;5.178;2023-09-18T13:36:13;100104.50;;;23.03;100.00
58975;BME280;44751;52.236;5.178;2023-09-18T13:38:44;100101.97;;;23.17;100.00
58975;BME280;44751;52.236;5.178;2023-09-18T13:41:11;100105.91;;;23.56;100.00
58975;BME280;44751;52.236;5.178;2023-09-18T13:43:38;100085.22;;;23.08;100.00
58975;BME280;44751;52.236;5.178;2023-09-18T13:46:05;100078.13;;;22.96;100.00
58975;BME280;44751;52.236;5.178;2023-09-18T13:48:46;100080.22;;;23.66;100.00
58975;BME280;44751;52.236;5.178;2023-09-18T13:51:44;100091.16;;;23.26;100.00
58975;BME280;44751;52.236;5.178;2023-09-18T13:54:11;100078.97;;;23.42;100.00
58975;BME280;44751;52.236;5.178;2023-09-18T13:56:38;100073.75;;;23.46;100.00
58975;BME280;44751;52.236;5.178;2023-09-18T13:59:18;100067.09;;;23.52;100.00
58975;BME280;44751;52.236;5.178;2023-09-18T14:01:45;100058.13;;;24.06;100.00
58975;BME280;44751;52.236;5.178;2023-09-18T14:04:14;100066.50;;;23.95;100.00
58975;BME280;44751;52.236;5.178;2023-09-18T14:06:52;100062.69;;;23.51;100.00
58975;BME280;44751;52.236;5.178;2023-09-18T14:09:19;100064.84;;;23.09;100.00
58975;BME280;44751;52.236;5.178;2023-09-18T14:11:46;100066.28;;;22.96;100.00
58975;BME280;44751;52.236;5.178;2023-09-18T14:14:15;100075.97;;;22.83;100.00
58975;BME280;44751;52.236;5.178;2023-09-18T14:16:42;100073.56;;;22.66;100.00
58975;BME280;44751;52.236;5.178;2023-09-18T14:19:16;100076.88;;;22.63;100.00
58975;BME280;44751;52.236;5.178;2023-09-18T14:21:43;100067.06;;;23.57;100.00
58975;BME280;44751;52.236;5.178;2023-09-18T14:24:10;100060.31;;;23.39;100.00
58975;BME280;44751;52.236;5.178;2023-09-18T14:26:43;100051.50;;;22.81;100.00
58975;BME280;44751;52.236;5.178;2023-09-18T14:29:10;100045.81;;;22.57;100.00
58975;BME280;44751;52.236;5.178;2023-09-18T14:31:37;100053.28;;;22.41;100.00
58975;BME280;44751;52.236;5.178;2023-09-18T14:34:03;100053.84;;;22.33;100.00
58975;BME280;44751;52.236;5.178;2023-09-18T14:36:36;100051.63;;;22.40;100.00
58975;BME280;44751;52.236;5.178;2023-09-18T14:39:05;100050.53;;;22.41;100.00
58975;BME280;44751;52.236;5.178;2023-09-18T14:41:33;100036.00;;;22.09;100.00
58975;BME280;44751;52.236;5.178;2023-09-18T14:44:00;100050.84;;;22.13;100.00
58975;BME280;44751;52.236;5.178;2023-09-18T14:46:28;100055.53;;;22.13;100.00
58975;BME280;44751;52.236;5.178;2023-09-18T14:49:08;100053.59;;;22.03;100.00
58975;BME280;44751;52.236;5.178;2023-09-18T14:51:35;100045.94;;;21.95;100.00
58975;BME280;44751;52.236;5.178;2023-09-18T14:54:02;100049.47;;;21.69;100.00
58975;BME280;44751;52.236;5.178;2023-09-18T14:56:40;100045.84;;;21.22;100.00
58975;BME280;44751;52.236;5.178;2023-09-18T14:59:09;100041.03;;;20.81;100.00
58975;BME280;44751;52.236;5.178;2023-09-18T15:01:36;100045.91;;;20.63;100.00
58975;BME280;44751;52.236;5.178;2023-09-18T15:04:05;100031.00;;;20.43;100.00
58975;BME280;44751;52.236;5.178;2023-09-18T15:06:36;100034.50;;;20.33;100.00
58975;BME280;44751;52.236;5.178;2023-09-18T15:09:03;100108.63;;;20.21;100.00
58975;BME280;44751;52.236;5.178;2023-09-18T15:11:29;100100.72;;;18.92;100.00
58975;BME280;44751;52.236;5.178;2023-09-18T15:13:56;100100.72;;;18.30;100.00
58975;BME280;44751;52.236;5.178;2023-09-18T15:16:31;100104.66;;;18.05;100.00
58975;BME280;44751;52.236;5.178;2023-09-18T15:18:58;100119.06;;;18.01;100.00
58975;BME280;44751;52.236;5.178;2023-09-18T15:21:43;100114.75;;;17.88;100.00
58975;BME280;44751;52.236;5.178;2023-09-18T15:24:10;100099.13;;;18.00;100.00
58975;BME280;44751;52.236;5.178;2023-09-18T15:26:36;100102.03;;;17.93;100.00